sensor_id;sensor_type;location;lat;lon;timestamp;P1;durP1;ratioP1;P2;durP2;ratioP2
52456;SDS011;38369;52.840;7.082;2024-03-02T00:01:10;6.03;;;4.43;;
52456;SDS011;38369;52.840;7.082;2024-03-02T00:03:36;9.18;;;5.00;;
52456;SDS011;38369;52.840;7.082;2024-03-02T00:06:03;6.35;;;4.78;;
52456;SDS011;38369;52.840;7.082;2024-03-02T00:08:29;7.00;;;4.88;;
52456;SDS011;38369;52.840;7.082;2024-03-02T00:10:58;7.18;;;5.60;;
52456;SDS011;38369;52.840;7.082;2024-03-02T00:13:25;6.73;;;5.30;;
52456;SDS011;38369;52.840;7.082;2024-03-02T00:15:52;6.85;;;5.13;;
52456;SDS011;38369;52.840;7.082;2024-03-02T00:18:31;9.15;;;5.13;;
52456;SDS011;38369;52.840;7.082;2024-03-02T00:20:57;10.10;;;6.18;;
52456;SDS011;38369;52.840;7.082;2024-03-02T00:23:23;7.63;;;5.40;;
52456;SDS011;38369;52.840;7.082;2024-03-02T00:25:51;7.45;;;5.22;;
52456;SDS011;38369;52.840;7.082;2024-03-02T00:28:24;9.35;;;6.18;;
52456;SDS011;38369;52.840;7.082;2024-03-02T00:33:20;7.38;;;5.50;;
52456;SDS011;38369;52.840;7.082;2024-03-02T00:35:47;8.18;;;5.45;;
52456;SDS011;38369;52.840;7.082;2024-03-02T00:38:14;9.00;;;6.20;;
52456;SDS011;38369;52.840;7.082;2024-03-02T00:40:41;8.93;;;5.97;;
52456;SDS011;38369;52.840;7.082;2024-03-02T00:43:11;6.68;;;4.82;;
52456;SDS011;38369;52.840;7.082;2024-03-02T00:45:44;7.43;;;5.40;;
52456;SDS011;38369;52.840;7.082;2024-03-02T00:48:10;11.48;;;6.47;;
52456;SDS011;38369;52.840;7.082;2024-03-02T00:50:36;8.85;;;5.93;;
52456;SDS011;38369;52.840;7.082;2024-03-02T00:53:03;8.05;;;5.65;;
52456;SDS011;38369;52.840;7.082;2024-03-02T00:55:29;8.43;;;6.13;;
52456;SDS011;38369;52.840;7.082;2024-03-02T00:57:55;7.53;;;6.03;;
52456;SDS011;38369;52.840;7.082;2024-03-02T01:00:21;8.55;;;5.75;;
52456;SDS011;38369;52.840;7.082;2024-03-02T01:02:47;7.97;;;5.50;;
52456;SDS011;38369;52.840;7.082;2024-03-02T01:05:13;7.03;;;4.97;;
52456;SDS011;38369;52.840;7.082;2024-03-02T01:07:39;6.95;;;5.25;;
52456;SDS011;38369;52.840;7.082;2024-03-02T01:10:05;7.57;;;5.70;;
52456;SDS011;38369;52.840;7.082;2024-03-02T01:12:31;8.73;;;5.55;;
52456;SDS011;38369;52.840;7.082;2024-03-02T01:14:57;10.15;;;6.43;;
52456;SDS011;38369;52.840;7.082;2024-03-02T01:17:23;9.60;;;5.18;;
52456;SDS011;38369;52.840;7.082;2024-03-02T01:19:49;7.88;;;5.38;;
52456;SDS011;38369;52.840;7.082;2024-03-02T01:22:15;8.73;;;5.35;;
52456;SDS011;38369;52.840;7.082;2024-03-02T01:24:41;7.25;;;5.10;;
52456;SDS011;38369;52.840;7.082;2024-03-02T01:27:08;7.65;;;5.03;;
52456;SDS011;38369;52.840;7.082;2024-03-02T01:29:34;5.25;;;3.95;;
52456;SDS011;38369;52.840;7.082;2024-03-02T01:32:00;7.53;;;4.70;;
52456;SDS011;38369;52.840;7.082;2024-03-02T01:34:25;6.90;;;4.63;;
52456;SDS011;38369;52.840;7.082;2024-03-02T01:36:51;7.78;;;4.93;;
52456;SDS011;38369;52.840;7.082;2024-03-02T01:39:17;6.60;;;5.13;;
52456;SDS011;38369;52.840;7.082;2024-03-02T01:41:43;7.28;;;5.40;;
52456;SDS011;38369;52.840;7.082;2024-03-02T01:44:09;5.22;;;4.60;;
52456;SDS011;38369;52.840;7.082;2024-03-02T01:46:35;7.65;;;5.03;;
52456;SDS011;38369;52.840;7.082;2024-03-02T01:49:01;8.25;;;5.30;;
52456;SDS011;38369;52.840;7.082;2024-03-02T01:51:27;7.40;;;3.88;;
52456;SDS011;38369;52.840;7.082;2024-03-02T01:53:53;8.57;;;5.00;;
52456;SDS011;38369;52.840;7.082;2024-03-02T01:56:20;6.70;;;4.38;;
52456;SDS011;38369;52.840;7.082;2024-03-02T01:58:46;4.97;;;3.85;;
52456;SDS011;38369;52.840;7.082;2024-03-02T02:01:12;8.15;;;5.07;;
52456;SDS011;38369;52.840;7.082;2024-03-02T02:03:39;5.45;;;3.88;;
52456;SDS011;38369;52.840;7.082;2024-03-02T02:06:05;5.82;;;4.53;;
52456;SDS011;38369;52.840;7.082;2024-03-02T02:08:32;7.60;;;4.22;;
52456;SDS011;38369;52.840;7.082;2024-03-02T02:10:58;5.90;;;3.97;;
52456;SDS011;38369;52.840;7.082;2024-03-02T02:13:24;6.80;;;4.53;;
52456;SDS011;38369;52.840;7.082;2024-03-02T02:15:50;7.97;;;5.20;;
52456;SDS011;38369;52.840;7.082;2024-03-02T02:18:17;9.38;;;4.30;;
52456;SDS011;38369;52.840;7.082;2024-03-02T02:20:43;5.38;;;4.20;;
52456;SDS011;38369;52.840;7.082;2024-03-02T02:23:09;4.95;;;4.13;;
52456;SDS011;38369;52.840;7.082;2024-03-02T02:25:35;5.00;;;4.18;;
52456;SDS011;38369;52.840;7.082;2024-03-02T02:28:01;5.47;;;4.13;;
52456;SDS011;38369;52.840;7.082;2024-03-02T02:30:29;4.38;;;3.70;;
52456;SDS011;38369;52.840;7.082;2024-03-02T02:32:55;6.10;;;3.58;;
52456;SDS011;38369;52.840;7.082;2024-03-02T02:35:21;5.18;;;4.35;;
52456;SDS011;38369;52.840;7.082;2024-03-02T02:37:49;6.60;;;4.00;;
52456;SDS011;38369;52.840;7.082;2024-03-02T02:40:15;6.40;;;5.15;;
52456;SDS011;38369;52.840;7.082;2024-03-02T02:42:43;5.47;;;4.57;;
52456;SDS011;38369;52.840;7.082;2024-03-02T02:45:09;5.55;;;4.13;;
52456;SDS011;38369;52.840;7.082;2024-03-02T02:47:38;5.55;;;3.40;;
52456;SDS011;38369;52.840;7.082;2024-03-02T02:50:04;5.82;;;3.60;;
52456;SDS011;38369;52.840;7.082;2024-03-02T02:52:31;4.90;;;3.30;;
52456;SDS011;38369;52.840;7.082;2024-03-02T02:54:58;4.78;;;3.65;;
52456;SDS011;38369;52.840;7.082;2024-03-02T02:57:24;5.68;;;3.70;;
52456;SDS011;38369;52.840;7.082;2024-03-02T02:59:50;4.88;;;3.60;;
52456;SDS011;38369;52.840;7.082;2024-03-02T03:02:16;6.32;;;3.72;;
52456;SDS011;38369;52.840;7.082;2024-03-02T03:04:42;5.72;;;3.80;;
52456;SDS011;38369;52.840;7.082;2024-03-02T03:07:08;4.78;;;3.55;;
52456;SDS011;38369;52.840;7.082;2024-03-02T03:09:36;5.78;;;3.45;;
52456;SDS011;38369;52.840;7.082;2024-03-02T03:12:03;5.68;;;3.28;;
52456;SDS011;38369;52.840;7.082;2024-03-02T03:14:30;7.40;;;4.28;;
52456;SDS011;38369;52.840;7.082;2024-03-02T03:16:56;5.22;;;3.42;;
52456;SDS011;38369;52.840;7.082;2024-03-02T03:19:21;5.07;;;3.83;;
52456;SDS011;38369;52.840;7.082;2024-03-02T03:21:47;5.13;;;3.20;;
52456;SDS011;38369;52.840;7.082;2024-03-02T03:24:13;5.20;;;3.78;;
52456;SDS011;38369;52.840;7.082;2024-03-02T03:26:39;5.10;;;3.42;;
52456;SDS011;38369;52.840;7.082;2024-03-02T03:29:05;4.93;;;3.42;;
52456;SDS011;38369;52.840;7.082;2024-03-02T03:31:31;4.22;;;3.38;;
52456;SDS011;38369;52.840;7.082;2024-03-02T03:33:57;6.53;;;3.83;;
52456;SDS011;38369;52.840;7.082;2024-03-02T03:36:23;6.22;;;4.10;;
52456;SDS011;38369;52.840;7.082;2024-03-02T03:38:49;3.47;;;2.97;;
52456;SDS011;38369;52.840;7.082;2024-03-02T03:41:15;5.50;;;3.63;;
52456;SDS011;38369;52.840;7.082;2024-03-02T03:43:41;8.05;;;3.83;;
52456;SDS011;38369;52.840;7.082;2024-03-02T03:46:07;6.13;;;3.35;;
52456;SDS011;38369;52.840;7.082;2024-03-02T03:48:33;4.60;;;3.00;;
52456;SDS011;38369;52.840;7.082;2024-03-02T03:50:59;3.55;;;2.90;;
52456;SDS011;38369;52.840;7.082;2024-03-02T03:53:25;6.97;;;3.42;;
52456;SDS011;38369;52.840;7.082;2024-03-02T03:55:51;5.25;;;3.28;;
52456;SDS011;38369;52.840;7.082;2024-03-02T03:58:17;4.85;;;3.08;;
52456;SDS011;38369;52.840;7.082;2024-03-02T04:00:45;5.00;;;3.30;;
52456;SDS011;38369;52.840;7.082;2024-03-02T04:03:11;4.78;;;3.55;;
52456;SDS011;38369;52.840;7.082;2024-03-02T04:05:38;4.75;;;3.40;;
52456;SDS011;38369;52.840;7.082;2024-03-02T04:08:04;3.63;;;2.95;;
52456;SDS011;38369;52.840;7.082;2024-03-02T04:10:30;4.25;;;3.42;;
52456;SDS011;38369;52.840;7.082;2024-03-02T04:12:56;4.90;;;3.65;;
52456;SDS011;38369;52.840;7.082;2024-03-02T04:15:22;4.32;;;3.20;;
52456;SDS011;38369;52.840;7.082;2024-03-02T04:17:48;5.28;;;3.33;;
52456;SDS011;38369;52.840;7.082;2024-03-02T04:20:14;4.72;;;3.47;;
52456;SDS011;38369;52.840;7.082;2024-03-02T04:22:40;5.05;;;3.67;;
52456;SDS011;38369;52.840;7.082;2024-03-02T04:25:07;4.38;;;3.38;;
52456;SDS011;38369;52.840;7.082;2024-03-02T04:27:33;5.47;;;3.85;;
52456;SDS011;38369;52.840;7.082;2024-03-02T04:29:59;5.07;;;4.40;;
52456;SDS011;38369;52.840;7.082;2024-03-02T04:32:25;5.22;;;3.92;;
52456;SDS011;38369;52.840;7.082;2024-03-02T04:34:51;5.63;;;3.92;;
52456;SDS011;38369;52.840;7.082;2024-03-02T04:37:17;7.55;;;4.18;;
52456;SDS011;38369;52.840;7.082;2024-03-02T04:39:43;6.35;;;4.18;;
52456;SDS011;38369;52.840;7.082;2024-03-02T04:42:09;5.70;;;4.03;;
52456;SDS011;38369;52.840;7.082;2024-03-02T04:44:35;7.13;;;3.97;;
52456;SDS011;38369;52.840;7.082;2024-03-02T04:47:03;7.88;;;4.13;;
52456;SDS011;38369;52.840;7.082;2024-03-02T04:49:29;4.88;;;4.00;;
52456;SDS011;38369;52.840;7.082;2024-03-02T04:51:55;5.32;;;4.05;;
52456;SDS011;38369;52.840;7.082;2024-03-02T04:54:22;5.30;;;4.13;;
52456;SDS011;38369;52.840;7.082;2024-03-02T04:56:48;7.85;;;4.10;;
52456;SDS011;38369;52.840;7.082;2024-03-02T04:59:17;5.30;;;4.10;;
52456;SDS011;38369;52.840;7.082;2024-03-02T05:01:43;6.80;;;3.90;;
52456;SDS011;38369;52.840;7.082;2024-03-02T05:04:10;6.35;;;4.18;;
52456;SDS011;38369;52.840;7.082;2024-03-02T05:06:39;5.35;;;4.22;;
52456;SDS011;38369;52.840;7.082;2024-03-02T05:09:06;5.55;;;4.00;;
52456;SDS011;38369;52.840;7.082;2024-03-02T05:11:32;5.75;;;4.28;;
52456;SDS011;38369;52.840;7.082;2024-03-02T05:14:21;5.70;;;4.20;;
52456;SDS011;38369;52.840;7.082;2024-03-02T05:16:47;6.38;;;3.78;;
52456;SDS011;38369;52.840;7.082;2024-03-02T05:19:13;4.78;;;3.88;;
52456;SDS011;38369;52.840;7.082;2024-03-02T05:21:39;5.40;;;3.88;;
52456;SDS011;38369;52.840;7.082;2024-03-02T05:24:05;7.85;;;4.70;;
52456;SDS011;38369;52.840;7.082;2024-03-02T05:26:31;6.30;;;4.25;;
52456;SDS011;38369;52.840;7.082;2024-03-02T05:28:57;6.43;;;4.07;;
52456;SDS011;38369;52.840;7.082;2024-03-02T05:31:23;6.80;;;4.40;;
52456;SDS011;38369;52.840;7.082;2024-03-02T05:33:49;6.95;;;4.72;;
52456;SDS011;38369;52.840;7.082;2024-03-02T05:36:17;6.25;;;4.43;;
52456;SDS011;38369;52.840;7.082;2024-03-02T05:38:43;6.22;;;4.30;;
52456;SDS011;38369;52.840;7.082;2024-03-02T05:41:09;6.40;;;4.70;;
52456;SDS011;38369;52.840;7.082;2024-03-02T05:43:36;5.72;;;4.00;;
52456;SDS011;38369;52.840;7.082;2024-03-02T05:46:02;8.32;;;4.88;;
52456;SDS011;38369;52.840;7.082;2024-03-02T05:48:28;5.45;;;4.20;;
52456;SDS011;38369;52.840;7.082;2024-03-02T05:50:54;7.25;;;4.45;;
52456;SDS011;38369;52.840;7.082;2024-03-02T05:53:21;7.47;;;4.95;;
52456;SDS011;38369;52.840;7.082;2024-03-02T05:55:47;6.05;;;4.45;;
52456;SDS011;38369;52.840;7.082;2024-03-02T05:58:18;5.63;;;4.80;;
52456;SDS011;38369;52.840;7.082;2024-03-02T06:01:04;6.68;;;4.88;;
52456;SDS011;38369;52.840;7.082;2024-03-02T06:03:30;5.85;;;4.05;;
52456;SDS011;38369;52.840;7.082;2024-03-02T06:05:56;6.18;;;4.65;;
52456;SDS011;38369;52.840;7.082;2024-03-02T06:08:22;8.70;;;4.65;;
52456;SDS011;38369;52.840;7.082;2024-03-02T06:10:48;8.00;;;4.72;;
52456;SDS011;38369;52.840;7.082;2024-03-02T06:13:14;6.00;;;4.22;;
52456;SDS011;38369;52.840;7.082;2024-03-02T06:15:40;5.63;;;4.25;;
52456;SDS011;38369;52.840;7.082;2024-03-02T06:18:06;9.63;;;4.80;;
52456;SDS011;38369;52.840;7.082;2024-03-02T06:20:33;6.28;;;4.68;;
52456;SDS011;38369;52.840;7.082;2024-03-02T06:22:59;7.15;;;4.22;;
52456;SDS011;38369;52.840;7.082;2024-03-02T06:25:25;6.20;;;4.63;;
52456;SDS011;38369;52.840;7.082;2024-03-02T06:27:51;4.90;;;3.92;;
52456;SDS011;38369;52.840;7.082;2024-03-02T06:30:17;7.72;;;4.10;;
52456;SDS011;38369;52.840;7.082;2024-03-02T06:32:43;7.22;;;4.45;;
52456;SDS011;38369;52.840;7.082;2024-03-02T06:35:09;5.72;;;4.10;;
52456;SDS011;38369;52.840;7.082;2024-03-02T06:37:36;6.03;;;4.55;;
52456;SDS011;38369;52.840;7.082;2024-03-02T06:40:04;5.05;;;3.90;;
52456;SDS011;38369;52.840;7.082;2024-03-02T06:42:32;7.68;;;4.20;;
52456;SDS011;38369;52.840;7.082;2024-03-02T06:44:58;5.43;;;4.38;;
52456;SDS011;38369;52.840;7.082;2024-03-02T06:47:24;9.65;;;5.03;;
52456;SDS011;38369;52.840;7.082;2024-03-02T06:49:50;5.22;;;4.00;;
52456;SDS011;38369;52.840;7.082;2024-03-02T06:52:18;4.75;;;3.85;;
52456;SDS011;38369;52.840;7.082;2024-03-02T06:54:45;4.68;;;3.90;;
52456;SDS011;38369;52.840;7.082;2024-03-02T06:57:11;6.43;;;4.70;;
52456;SDS011;38369;52.840;7.082;2024-03-02T06:59:37;8.30;;;4.78;;
52456;SDS011;38369;52.840;7.082;2024-03-02T07:02:03;5.60;;;4.13;;
52456;SDS011;38369;52.840;7.082;2024-03-02T07:04:29;10.43;;;4.85;;
52456;SDS011;38369;52.840;7.082;2024-03-02T07:06:55;7.15;;;4.55;;
52456;SDS011;38369;52.840;7.082;2024-03-02T07:09:21;7.93;;;4.72;;
52456;SDS011;38369;52.840;7.082;2024-03-02T07:11:50;6.45;;;4.68;;
52456;SDS011;38369;52.840;7.082;2024-03-02T07:14:17;5.78;;;4.60;;
52456;SDS011;38369;52.840;7.082;2024-03-02T07:16:43;7.47;;;4.80;;
52456;SDS011;38369;52.840;7.082;2024-03-02T07:19:09;8.02;;;4.68;;
52456;SDS011;38369;52.840;7.082;2024-03-02T07:21:35;7.57;;;4.47;;
52456;SDS011;38369;52.840;7.082;2024-03-02T07:24:01;7.65;;;4.70;;
52456;SDS011;38369;52.840;7.082;2024-03-02T07:26:30;24.07;;;5.63;;
52456;SDS011;38369;52.840;7.082;2024-03-02T07:28:57;8.20;;;4.82;;
52456;SDS011;38369;52.840;7.082;2024-03-02T07:31:23;7.82;;;4.57;;
52456;SDS011;38369;52.840;7.082;2024-03-02T07:33:49;8.77;;;5.35;;
52456;SDS011;38369;52.840;7.082;2024-03-02T07:36:15;6.25;;;4.85;;
52456;SDS011;38369;52.840;7.082;2024-03-02T07:38:41;10.75;;;5.03;;
52456;SDS011;38369;52.840;7.082;2024-03-02T07:41:09;6.90;;;5.07;;
52456;SDS011;38369;52.840;7.082;2024-03-02T07:43:36;8.85;;;5.00;;
52456;SDS011;38369;52.840;7.082;2024-03-02T07:46:02;7.28;;;5.55;;
52456;SDS011;38369;52.840;7.082;2024-03-02T07:48:28;7.78;;;4.88;;
52456;SDS011;38369;52.840;7.082;2024-03-02T07:50:55;9.38;;;5.15;;
52456;SDS011;38369;52.840;7.082;2024-03-02T07:53:21;9.15;;;5.78;;
52456;SDS011;38369;52.840;7.082;2024-03-02T07:55:47;8.50;;;5.40;;
52456;SDS011;38369;52.840;7.082;2024-03-02T07:58:13;9.55;;;5.43;;
52456;SDS011;38369;52.840;7.082;2024-03-02T08:00:39;9.60;;;6.35;;
52456;SDS011;38369;52.840;7.082;2024-03-02T08:03:06;10.00;;;6.03;;
52456;SDS011;38369;52.840;7.082;2024-03-02T08:05:32;8.93;;;5.90;;
52456;SDS011;38369;52.840;7.082;2024-03-02T08:07:58;6.25;;;4.78;;
52456;SDS011;38369;52.840;7.082;2024-03-02T08:10:24;7.53;;;5.65;;
52456;SDS011;38369;52.840;7.082;2024-03-02T08:12:50;12.20;;;5.25;;
52456;SDS011;38369;52.840;7.082;2024-03-02T08:15:16;7.97;;;5.38;;
52456;SDS011;38369;52.840;7.082;2024-03-02T08:17:42;8.20;;;5.22;;
52456;SDS011;38369;52.840;7.082;2024-03-02T08:20:13;7.43;;;5.05;;
52456;SDS011;38369;52.840;7.082;2024-03-02T08:22:39;7.60;;;4.68;;
52456;SDS011;38369;52.840;7.082;2024-03-02T08:25:05;17.75;;;5.88;;
52456;SDS011;38369;52.840;7.082;2024-03-02T08:27:32;6.70;;;5.55;;
52456;SDS011;38369;52.840;7.082;2024-03-02T08:29:59;10.60;;;5.30;;
52456;SDS011;38369;52.840;7.082;2024-03-02T08:32:25;8.88;;;5.75;;
52456;SDS011;38369;52.840;7.082;2024-03-02T08:34:51;11.60;;;5.97;;
52456;SDS011;38369;52.840;7.082;2024-03-02T08:37:17;6.32;;;5.03;;
52456;SDS011;38369;52.840;7.082;2024-03-02T08:39:44;8.55;;;5.63;;
52456;SDS011;38369;52.840;7.082;2024-03-02T08:42:10;6.93;;;5.50;;
52456;SDS011;38369;52.840;7.082;2024-03-02T08:44:36;6.60;;;4.32;;
52456;SDS011;38369;52.840;7.082;2024-03-02T08:47:02;8.52;;;4.80;;
52456;SDS011;38369;52.840;7.082;2024-03-02T08:49:29;7.88;;;4.40;;
52456;SDS011;38369;52.840;7.082;2024-03-02T08:51:54;6.25;;;4.63;;
52456;SDS011;38369;52.840;7.082;2024-03-02T08:54:21;6.85;;;5.07;;
52456;SDS011;38369;52.840;7.082;2024-03-02T08:56:50;8.02;;;4.55;;
52456;SDS011;38369;52.840;7.082;2024-03-02T08:59:16;7.63;;;4.88;;
52456;SDS011;38369;52.840;7.082;2024-03-02T09:01:42;6.93;;;4.78;;
52456;SDS011;38369;52.840;7.082;2024-03-02T09:04:08;6.85;;;5.13;;
52456;SDS011;38369;52.840;7.082;2024-03-02T09:06:34;5.88;;;4.80;;
52456;SDS011;38369;52.840;7.082;2024-03-02T09:09:00;6.55;;;4.47;;
52456;SDS011;38369;52.840;7.082;2024-03-02T09:11:26;6.72;;;4.75;;
52456;SDS011;38369;52.840;7.082;2024-03-02T09:13:52;6.80;;;4.07;;
52456;SDS011;38369;52.840;7.082;2024-03-02T09:16:20;4.93;;;3.88;;
52456;SDS011;38369;52.840;7.082;2024-03-02T09:18:46;5.32;;;4.13;;
52456;SDS011;38369;52.840;7.082;2024-03-02T09:21:12;4.65;;;3.60;;
52456;SDS011;38369;52.840;7.082;2024-03-02T09:23:40;5.60;;;3.70;;
52456;SDS011;38369;52.840;7.082;2024-03-02T09:26:06;5.13;;;3.80;;
52456;SDS011;38369;52.840;7.082;2024-03-02T09:28:32;8.18;;;4.43;;
52456;SDS011;38369;52.840;7.082;2024-03-02T09:31:00;6.78;;;4.03;;
52456;SDS011;38369;52.840;7.082;2024-03-02T09:33:26;11.10;;;4.15;;
52456;SDS011;38369;52.840;7.082;2024-03-02T09:35:52;5.00;;;3.40;;
52456;SDS011;38369;52.840;7.082;2024-03-02T09:38:18;4.22;;;3.42;;
52456;SDS011;38369;52.840;7.082;2024-03-02T09:40:44;4.75;;;3.40;;
52456;SDS011;38369;52.840;7.082;2024-03-02T09:43:10;6.65;;;4.65;;
52456;SDS011;38369;52.840;7.082;2024-03-02T09:45:36;7.82;;;3.50;;
52456;SDS011;38369;52.840;7.082;2024-03-02T09:48:02;7.90;;;4.32;;
52456;SDS011;38369;52.840;7.082;2024-03-02T09:50:28;5.43;;;3.22;;
52456;SDS011;38369;52.840;7.082;2024-03-02T09:52:54;6.43;;;3.40;;
52456;SDS011;38369;52.840;7.082;2024-03-02T09:55:20;6.45;;;4.18;;
52456;SDS011;38369;52.840;7.082;2024-03-02T09:57:46;4.32;;;3.28;;
52456;SDS011;38369;52.840;7.082;2024-03-02T10:00:14;4.47;;;3.35;;
52456;SDS011;38369;52.840;7.082;2024-03-02T10:02:41;6.35;;;3.55;;
52456;SDS011;38369;52.840;7.082;2024-03-02T10:05:08;5.78;;;3.47;;
52456;SDS011;38369;52.840;7.082;2024-03-02T10:07:34;5.18;;;3.55;;
52456;SDS011;38369;52.840;7.082;2024-03-02T10:10:11;3.53;;;2.80;;
52456;SDS011;38369;52.840;7.082;2024-03-02T10:12:38;4.95;;;3.20;;
52456;SDS011;38369;52.840;7.082;2024-03-02T10:15:04;4.97;;;3.13;;
52456;SDS011;38369;52.840;7.082;2024-03-02T10:17:30;4.70;;;3.25;;
52456;SDS011;38369;52.840;7.082;2024-03-02T10:19:57;7.18;;;3.25;;
52456;SDS011;38369;52.840;7.082;2024-03-02T10:22:23;6.68;;;3.45;;
52456;SDS011;38369;52.840;7.082;2024-03-02T10:24:49;4.32;;;3.33;;
52456;SDS011;38369;52.840;7.082;2024-03-02T10:27:33;4.47;;;3.25;;
52456;SDS011;38369;52.840;7.082;2024-03-02T10:30:00;7.05;;;4.30;;
52456;SDS011;38369;52.840;7.082;2024-03-02T10:32:28;5.88;;;3.63;;
52456;SDS011;38369;52.840;7.082;2024-03-02T10:34:54;4.57;;;3.63;;
52456;SDS011;38369;52.840;7.082;2024-03-02T10:37:21;4.53;;;3.20;;
52456;SDS011;38369;52.840;7.082;2024-03-02T10:39:47;6.63;;;3.30;;
52456;SDS011;38369;52.840;7.082;2024-03-02T10:42:13;7.55;;;3.33;;
52456;SDS011;38369;52.840;7.082;2024-03-02T10:44:40;4.05;;;2.65;;
52456;SDS011;38369;52.840;7.082;2024-03-02T10:47:07;7.03;;;3.70;;
52456;SDS011;38369;52.840;7.082;2024-03-02T10:49:34;5.60;;;3.10;;
52456;SDS011;38369;52.840;7.082;2024-03-02T10:52:00;4.00;;;2.90;;
52456;SDS011;38369;52.840;7.082;2024-03-02T10:54:27;10.05;;;3.80;;
52456;SDS011;38369;52.840;7.082;2024-03-02T10:57:01;7.35;;;2.90;;
52456;SDS011;38369;52.840;7.082;2024-03-02T10:59:34;4.85;;;2.75;;
52456;SDS011;38369;52.840;7.082;2024-03-02T11:02:02;3.75;;;2.67;;
52456;SDS011;38369;52.840;7.082;2024-03-02T11:04:29;3.97;;;3.13;;
52456;SDS011;38369;52.840;7.082;2024-03-02T11:07:05;6.00;;;3.03;;
52456;SDS011;38369;52.840;7.082;2024-03-02T11:09:36;4.47;;;2.75;;
52456;SDS011;38369;52.840;7.082;2024-03-02T11:12:03;4.45;;;2.72;;
52456;SDS011;38369;52.840;7.082;2024-03-02T11:14:32;5.47;;;2.95;;
52456;SDS011;38369;52.840;7.082;2024-03-02T11:16:58;6.07;;;2.70;;
52456;SDS011;38369;52.840;7.082;2024-03-02T11:19:25;3.97;;;2.50;;
52456;SDS011;38369;52.840;7.082;2024-03-02T11:21:51;6.25;;;3.03;;
52456;SDS011;38369;52.840;7.082;2024-03-02T11:26:49;4.03;;;2.40;;
52456;SDS011;38369;52.840;7.082;2024-03-02T11:32:04;3.13;;;2.22;;
52456;SDS011;38369;52.840;7.082;2024-03-02T11:34:31;5.13;;;2.25;;
52456;SDS011;38369;52.840;7.082;2024-03-02T11:36:58;6.10;;;2.40;;
52456;SDS011;38369;52.840;7.082;2024-03-02T11:39:24;5.53;;;2.45;;
52456;SDS011;38369;52.840;7.082;2024-03-02T11:41:50;5.97;;;2.20;;
52456;SDS011;38369;52.840;7.082;2024-03-02T11:44:16;6.50;;;2.38;;
52456;SDS011;38369;52.840;7.082;2024-03-02T11:46:44;4.30;;;2.25;;
52456;SDS011;38369;52.840;7.082;2024-03-02T11:49:14;8.20;;;2.50;;
52456;SDS011;38369;52.840;7.082;2024-03-02T11:51:49;4.22;;;2.33;;
52456;SDS011;38369;52.840;7.082;2024-03-02T11:54:16;6.07;;;2.67;;
52456;SDS011;38369;52.840;7.082;2024-03-02T11:56:43;8.07;;;3.38;;
52456;SDS011;38369;52.840;7.082;2024-03-02T11:59:09;18.48;;;2.83;;
52456;SDS011;38369;52.840;7.082;2024-03-02T12:01:35;6.13;;;2.53;;
52456;SDS011;38369;52.840;7.082;2024-03-02T12:04:01;5.57;;;2.53;;
52456;SDS011;38369;52.840;7.082;2024-03-02T12:06:28;3.67;;;2.05;;
52456;SDS011;38369;52.840;7.082;2024-03-02T12:08:55;3.80;;;1.95;;
52456;SDS011;38369;52.840;7.082;2024-03-02T12:11:21;3.75;;;2.65;;
52456;SDS011;38369;52.840;7.082;2024-03-02T12:13:52;4.55;;;2.50;;
52456;SDS011;38369;52.840;7.082;2024-03-02T12:16:22;2.90;;;2.28;;
52456;SDS011;38369;52.840;7.082;2024-03-02T12:18:48;5.40;;;2.53;;
52456;SDS011;38369;52.840;7.082;2024-03-02T12:21:14;4.45;;;2.60;;
52456;SDS011;38369;52.840;7.082;2024-03-02T12:23:41;3.80;;;2.30;;
52456;SDS011;38369;52.840;7.082;2024-03-02T12:26:07;5.00;;;2.55;;
52456;SDS011;38369;52.840;7.082;2024-03-02T12:28:33;4.13;;;2.58;;
52456;SDS011;38369;52.840;7.082;2024-03-02T12:30:59;23.35;;;4.20;;
52456;SDS011;38369;52.840;7.082;2024-03-02T12:33:25;14.05;;;2.70;;
52456;SDS011;38369;52.840;7.082;2024-03-02T12:35:52;4.93;;;2.05;;
52456;SDS011;38369;52.840;7.082;2024-03-02T12:38:18;13.45;;;2.55;;
52456;SDS011;38369;52.840;7.082;2024-03-02T12:40:44;4.38;;;2.25;;
52456;SDS011;38369;52.840;7.082;2024-03-02T12:43:10;3.83;;;2.10;;
52456;SDS011;38369;52.840;7.082;2024-03-02T12:45:36;3.63;;;2.30;;
52456;SDS011;38369;52.840;7.082;2024-03-02T12:48:03;3.38;;;2.13;;
52456;SDS011;38369;52.840;7.082;2024-03-02T12:50:30;5.97;;;1.90;;
52456;SDS011;38369;52.840;7.082;2024-03-02T12:52:56;3.35;;;2.15;;
52456;SDS011;38369;52.840;7.082;2024-03-02T12:55:22;3.10;;;1.83;;
52456;SDS011;38369;52.840;7.082;2024-03-02T12:57:52;5.82;;;1.88;;
52456;SDS011;38369;52.840;7.082;2024-03-02T13:00:18;8.63;;;2.33;;
52456;SDS011;38369;52.840;7.082;2024-03-02T13:02:45;4.00;;;2.08;;
52456;SDS011;38369;52.840;7.082;2024-03-02T13:05:11;4.97;;;1.75;;
52456;SDS011;38369;52.840;7.082;2024-03-02T13:07:38;2.60;;;1.40;;
52456;SDS011;38369;52.840;7.082;2024-03-02T13:10:06;3.45;;;1.30;;
52456;SDS011;38369;52.840;7.082;2024-03-02T13:12:35;3.63;;;1.40;;
52456;SDS011;38369;52.840;7.082;2024-03-02T13:15:01;5.15;;;2.22;;
52456;SDS011;38369;52.840;7.082;2024-03-02T13:17:28;3.35;;;1.52;;
52456;SDS011;38369;52.840;7.082;2024-03-02T13:19:55;3.55;;;1.67;;
52456;SDS011;38369;52.840;7.082;2024-03-02T13:22:21;2.75;;;1.60;;
52456;SDS011;38369;52.840;7.082;2024-03-02T13:24:48;2.95;;;1.83;;
52456;SDS011;38369;52.840;7.082;2024-03-02T13:27:14;4.70;;;1.95;;
52456;SDS011;38369;52.840;7.082;2024-03-02T13:29:41;2.85;;;1.98;;
52456;SDS011;38369;52.840;7.082;2024-03-02T13:32:07;3.65;;;1.70;;
52456;SDS011;38369;52.840;7.082;2024-03-02T13:34:35;3.30;;;1.77;;
52456;SDS011;38369;52.840;7.082;2024-03-02T13:37:02;5.90;;;2.22;;
52456;SDS011;38369;52.840;7.082;2024-03-02T13:39:29;6.40;;;2.53;;
52456;SDS011;38369;52.840;7.082;2024-03-02T13:41:57;5.43;;;2.47;;
52456;SDS011;38369;52.840;7.082;2024-03-02T13:44:29;3.72;;;1.98;;
52456;SDS011;38369;52.840;7.082;2024-03-02T13:46:55;5.07;;;2.85;;
52456;SDS011;38369;52.840;7.082;2024-03-02T13:49:21;3.85;;;2.35;;
52456;SDS011;38369;52.840;7.082;2024-03-02T13:51:48;3.97;;;2.45;;
52456;SDS011;38369;52.840;7.082;2024-03-02T13:54:14;3.38;;;2.15;;
52456;SDS011;38369;52.840;7.082;2024-03-02T13:56:40;3.47;;;2.38;;
52456;SDS011;38369;52.840;7.082;2024-03-02T13:59:06;5.70;;;2.80;;
52456;SDS011;38369;52.840;7.082;2024-03-02T14:01:32;3.42;;;2.13;;
52456;SDS011;38369;52.840;7.082;2024-03-02T14:03:58;3.90;;;2.72;;
52456;SDS011;38369;52.840;7.082;2024-03-02T14:06:24;6.22;;;3.00;;
52456;SDS011;38369;52.840;7.082;2024-03-02T14:08:52;3.67;;;2.28;;
52456;SDS011;38369;52.840;7.082;2024-03-02T14:11:18;2.90;;;2.60;;
52456;SDS011;38369;52.840;7.082;2024-03-02T14:13:44;3.72;;;2.67;;
52456;SDS011;38369;52.840;7.082;2024-03-02T14:16:18;3.50;;;2.53;;
52456;SDS011;38369;52.840;7.082;2024-03-02T14:18:44;4.20;;;2.53;;
52456;SDS011;38369;52.840;7.082;2024-03-02T14:21:10;4.53;;;2.50;;
52456;SDS011;38369;52.840;7.082;2024-03-02T14:23:36;3.55;;;2.33;;
52456;SDS011;38369;52.840;7.082;2024-03-02T14:26:03;5.45;;;2.63;;
52456;SDS011;38369;52.840;7.082;2024-03-02T14:28:29;3.60;;;2.17;;
52456;SDS011;38369;52.840;7.082;2024-03-02T14:30:55;4.05;;;2.47;;
52456;SDS011;38369;52.840;7.082;2024-03-02T14:33:21;4.20;;;2.78;;
52456;SDS011;38369;52.840;7.082;2024-03-02T14:35:47;5.38;;;2.95;;
52456;SDS011;38369;52.840;7.082;2024-03-02T14:38:13;6.38;;;3.10;;
52456;SDS011;38369;52.840;7.082;2024-03-02T14:40:39;3.75;;;2.15;;
52456;SDS011;38369;52.840;7.082;2024-03-02T14:43:05;3.75;;;2.50;;
52456;SDS011;38369;52.840;7.082;2024-03-02T14:45:31;4.63;;;2.40;;
52456;SDS011;38369;52.840;7.082;2024-03-02T14:47:57;4.38;;;2.38;;
52456;SDS011;38369;52.840;7.082;2024-03-02T14:50:26;4.03;;;2.55;;
52456;SDS011;38369;52.840;7.082;2024-03-02T14:52:52;3.78;;;2.85;;